Time;durP1;ratioP1;P1;durP2;ratioP2;P2;SDS_P1;SDS_P2;PMS_P1;PMS_P2;Temp;Humidity;BMP_temperature;BMP_pressure;BME280_temperature;BME280_humidity;BME280_pressure;Samples;Min_cycle;Max_cycle;Signal;HPM_P1;HPM_P2
2024/01/05 00:02:07;;;;;;;2.42;1.25;;;16.70;54.30;;;;;;6024350;23;20215;-84
2024/01/05 00:04:33;;;;;;;1.38;1.00;;;16.70;53.70;;;;;;6024338;23;20180;-83
2024/01/05 00:06:59;;;;;;;1.67;1.10;;;16.70;53.40;;;;;;6024716;23;20156;-84
2024/01/05 00:09:26;;;;;;;2.92;1.45;;;16.60;53.20;;;;;;6048117;23;20147;-83
2024/01/05 00:11:57;;;;;;;1.95;1.10;;;16.70;53.50;;;;;;6047928;23;20152;-83
2024/01/05 00:14:22;;;;;;;1.50;1.20;;;16.70;53.20;;;;;;6047314;23;20164;-83
2024/01/05 00:16:49;;;;;;;3.40;1.13;;;16.70;53.50;;;;;;6048311;23;20160;-82
2024/01/05 00:19:15;;;;;;;2.85;1.30;;;16.60;53.40;;;;;;6049357;23;20141;-83
2024/01/05 00:21:41;;;;;;;1.33;1.05;;;16.60;53.30;;;;;;6049770;23;20147;-82
2024/01/05 00:24:07;;;;;;;3.15;1.13;;;16.60;53.40;;;;;;6142565;23;20205;-83
2024/01/05 00:26:34;;;;;;;2.97;1.10;;;16.60;53.50;;;;;;6163142;23;20157;-83
2024/01/05 00:29:02;;;;;;;1.75;1.05;;;16.70;53.40;;;;;;6138309;23;20216;-83
2024/01/05 00:41:34;;;;;;;2.13;1.10;;;16.60;53.20;;;;;;6185410;23;20286;-83
2024/01/05 00:44:01;;;;;;;3.08;1.00;;;16.60;53.00;;;;;;6112705;23;20569;-83
2024/01/05 00:46:29;;;;;;;1.52;1.10;;;16.60;53.20;;;;;;6137582;23;20155;-83
2024/01/05 00:48:55;;;;;;;2.67;1.20;;;16.60;53.40;;;;;;6113230;23;20143;-83
2024/01/05 00:51:21;;;;;;;1.77;1.10;;;16.70;53.20;;;;;;6137322;23;20238;-83
2024/01/05 00:53:53;;;;;;;1.58;1.00;;;16.60;53.20;;;;;;6138653;23;20538;-83
2024/01/05 00:56:19;;;;;;;3.45;1.23;;;16.60;53.40;;;;;;6111492;23;20156;-82
2024/01/05 00:58:51;;;;;;;1.67;1.02;;;16.60;53.30;;;;;;6138275;23;20135;-83
2024/01/05 01:01:17;;;;;;;2.05;1.27;;;16.60;53.30;;;;;;6162739;23;20235;-83
2024/01/05 01:03:42;;;;;;;1.77;1.10;;;16.60;53.50;;;;;;6162952;23;20549;-83
2024/01/05 01:06:12;;;;;;;2.45;1.20;;;16.60;53.30;;;;;;6138189;23;20221;-83
2024/01/05 01:08:40;;;;;;;2.30;1.20;;;16.50;53.30;;;;;;6112221;23;20219;-83
2024/01/05 01:11:14;;;;;;;1.63;1.00;;;16.60;53.30;;;;;;6112876;23;20205;-83
2024/01/05 01:13:41;;;;;;;1.60;1.02;;;16.60;53.20;;;;;;6136995;23;20601;-84
2024/01/05 01:16:07;;;;;;;1.88;1.10;;;16.60;53.30;;;;;;6113471;23;20445;-83
2024/01/05 01:18:33;;;;;;;2.47;1.10;;;16.60;53.30;;;;;;6136982;23;20189;-83
2024/01/05 01:20:58;;;;;;;1.73;1.20;;;16.60;53.20;;;;;;6137066;23;20139;-82
2024/01/05 01:23:26;;;;;;;1.40;1.10;;;16.60;53.50;;;;;;6137351;23;20178;-83
2024/01/05 01:25:52;;;;;;;2.80;1.10;;;16.60;53.30;;;;;;6188798;23;20177;-82
2024/01/05 01:28:18;;;;;;;1.50;1.02;;;16.60;52.90;;;;;;6136997;23;20598;-83
2024/01/05 01:30:44;;;;;;;1.80;1.23;;;16.60;53.30;;;;;;6137465;23;20586;-83
2024/01/05 01:33:10;;;;;;;2.58;1.30;;;16.50;53.20;;;;;;6188603;23;20135;-83
2024/01/05 01:35:36;;;;;;;2.30;1.27;;;16.60;53.20;;;;;;6136982;23;20515;-84
2024/01/05 01:38:03;;;;;;;2.38;1.00;;;16.60;53.30;;;;;;6112648;23;20151;-83
2024/01/05 01:40:29;;;;;;;1.38;0.90;;;16.50;53.30;;;;;;6112027;23;20477;-84
2024/01/05 01:43:00;;;;;;;1.92;1.10;;;16.50;53.00;;;;;;6188237;23;20136;-85
2024/01/05 01:45:26;;;;;;;1.60;1.20;;;16.50;53.20;;;;;;6112603;23;20546;-83
2024/01/05 01:47:51;;;;;;;2.17;1.10;;;16.50;53.10;;;;;;6137686;23;20554;-83
2024/01/05 01:50:17;;;;;;;2.28;1.13;;;16.60;53.10;;;;;;6137861;23;20166;-83
2024/01/05 01:52:46;;;;;;;2.67;1.00;;;16.60;52.80;;;;;;6161552;23;20155;-84
2024/01/05 01:55:12;;;;;;;2.35;1.17;;;16.60;52.90;;;;;;6162356;23;20128;-83
2024/01/05 01:57:39;;;;;;;2.95;1.20;;;16.60;53.20;;;;;;6137608;23;20135;-83
2024/01/05 02:00:06;;;;;;;3.83;1.20;;;16.60;53.30;;;;;;6136976;23;20238;-83
2024/01/05 02:02:33;;;;;;;1.90;1.27;;;16.60;53.20;;;;;;6137109;23;20147;-86
2024/01/05 02:04:59;;;;;;;1.30;0.93;;;16.60;52.90;;;;;;6136261;23;20186;-83
2024/01/05 02:07:26;;;;;;;1.58;1.05;;;16.50;53.20;;;;;;6135562;23;20150;-84
2024/01/05 02:09:52;;;;;;;1.70;1.10;;;16.60;53.10;;;;;;6111845;23;20147;-83
2024/01/05 02:12:18;;;;;;;1.52;1.10;;;16.60;53.30;;;;;;6136557;23;20590;-84
2024/01/05 02:14:44;;;;;;;6.03;1.38;;;16.50;53.10;;;;;;6135488;23;20169;-83
2024/01/05 02:17:27;;;;;;;2.03;1.23;;;16.50;53.00;;;;;;6161342;23;20138;-83
2024/01/05 02:19:55;;;;;;;2.30;1.15;;;16.50;53.10;;;;;;6136662;23;20174;-83
2024/01/05 02:22:26;;;;;;;2.00;1.45;;;16.50;53.20;;;;;;6112519;23;20154;-83
2024/01/05 02:24:57;;;;;;;3.90;1.17;;;16.50;53.20;;;;;;6110629;23;20221;-83
2024/01/05 02:27:25;;;;;;;2.35;1.30;;;16.50;53.20;;;;;;6111119;23;20160;-83
2024/01/05 02:29:54;;;;;;;2.85;1.20;;;16.50;53.10;;;;;;6109386;23;20169;-83
2024/01/05 02:32:19;;;;;;;2.35;1.25;;;16.50;53.10;;;;;;6110375;23;20151;-83
2024/01/05 02:34:45;;;;;;;4.45;1.27;;;16.50;53.20;;;;;;6111688;23;20162;-83
2024/01/05 02:37:11;;;;;;;2.00;1.15;;;16.50;53.10;;;;;;6112047;23;20182;-83
2024/01/05 02:39:38;;;;;;;1.55;1.23;;;16.50;53.10;;;;;;6160862;23;20459;-84
2024/01/05 02:42:08;;;;;;;1.52;1.10;;;16.50;53.10;;;;;;6111275;23;20198;-83
2024/01/05 02:44:37;;;;;;;3.63;1.30;;;16.50;53.20;;;;;;6110077;23;20303;-83
2024/01/05 02:47:04;;;;;;;4.18;1.35;;;16.50;53.10;;;;;;6109909;23;20534;-83
2024/01/05 02:49:32;;;;;;;2.55;1.00;;;16.50;52.90;;;;;;6159861;23;20143;-83
2024/01/05 02:51:57;;;;;;;2.67;0.90;;;16.50;53.00;;;;;;6161079;23;20139;-84
2024/01/05 02:54:25;;;;;;;2.28;1.25;;;16.50;52.90;;;;;;6160852;23;20436;-83
2024/01/05 02:56:51;;;;;;;1.92;1.20;;;16.50;53.00;;;;;;6135616;23;20127;-82
2024/01/05 02:59:17;;;;;;;2.30;1.25;;;16.40;52.80;;;;;;6135127;23;20237;-83
2024/01/05 03:01:48;;;;;;;2.20;1.30;;;16.40;53.00;;;;;;6111149;23;20138;-83
2024/01/05 03:04:14;;;;;;;2.83;1.10;;;16.50;52.80;;;;;;6111330;23;20226;-83
2024/01/05 03:06:44;;;;;;;1.48;1.10;;;16.50;52.80;;;;;;6110746;23;20147;-83
2024/01/05 03:09:11;;;;;;;2.72;1.05;;;16.50;52.90;;;;;;6110504;23;20151;-83
2024/01/05 03:11:40;;;;;;;2.55;1.20;;;16.50;53.00;;;;;;6134788;23;20424;-83
2024/01/05 03:14:06;;;;;;;1.85;1.20;;;16.40;52.90;;;;;;6161448;23;20143;-83
2024/01/05 03:16:32;;;;;;;1.88;1.08;;;16.40;52.80;;;;;;6170917;23;20214;-82
2024/01/05 03:18:58;;;;;;;1.98;1.27;;;16.40;52.80;;;;;;6175195;23;20139;-84
2024/01/05 03:21:26;;;;;;;1.73;1.25;;;16.40;52.70;;;;;;6155064;23;20142;-83
2024/01/05 03:23:54;;;;;;;3.17;1.30;;;16.50;53.00;;;;;;6135645;23;20167;-83
2024/01/05 03:26:23;;;;;;;1.73;1.10;;;16.40;52.90;;;;;;6111116;23;20150;-83
2024/01/05 03:28:50;;;;;;;3.83;1.15;;;16.50;52.90;;;;;;6160299;23;20130;-83
2024/01/05 03:31:16;;;;;;;2.67;1.00;;;16.50;52.60;;;;;;6111274;23;20164;-83
2024/01/05 03:33:44;;;;;;;1.02;0.93;;;16.50;52.80;;;;;;6111173;23;20201;-83
2024/01/05 03:44:20;;;;;;;2.53;1.25;;;16.40;52.80;;;;;;6171562;23;20216;-83
2024/01/05 03:46:48;;;;;;;2.63;1.13;;;16.40;52.60;;;;;;6114438;23;20147;-83
2024/01/05 03:49:14;;;;;;;1.70;1.08;;;16.40;52.60;;;;;;6137367;23;20135;-82
2024/01/05 03:51:40;;;;;;;2.45;1.20;;;16.40;52.70;;;;;;6124046;23;20270;-82
2024/01/05 03:54:06;;;;;;;2.03;1.00;;;16.40;52.80;;;;;;6136053;23;20229;-83
2024/01/05 03:56:47;;;;;;;1.95;1.20;;;16.40;52.80;;;;;;6136063;23;20139;-83
2024/01/05 03:59:17;;;;;;;1.73;1.00;;;16.40;52.80;;;;;;6160735;23;20210;-83
2024/01/05 04:01:45;;;;;;;2.35;1.10;;;16.40;52.40;;;;;;6136934;23;20201;-84
2024/01/05 04:04:12;;;;;;;2.70;1.10;;;16.40;52.60;;;;;;6159884;23;20497;-84
2024/01/05 04:22:14;;;;;;;1.90;1.15;;;16.40;52.70;;;;;;6176965;23;20896;-82
2024/01/05 04:24:41;;;;;;;2.65;1.15;;;16.40;52.50;;;;;;6161847;23;20162;-83
2024/01/05 04:27:06;;;;;;;1.98;1.20;;;16.40;52.70;;;;;;6112457;23;20208;-83
2024/01/05 04:29:32;;;;;;;2.08;1.30;;;16.40;52.30;;;;;;6111957;23;20641;-83
2024/01/05 04:32:00;;;;;;;1.80;1.20;;;16.40;52.50;;;;;;6111940;23;20155;-84
2024/01/05 04:34:26;;;;;;;1.83;1.15;;;16.40;52.70;;;;;;6112581;23;20146;-83
2024/01/05 04:36:54;;;;;;;2.20;1.35;;;16.40;52.50;;;;;;6161082;23;20136;-84
2024/01/05 04:39:24;;;;;;;2.45;1.50;;;16.40;52.70;;;;;;6111774;23;20182;-83
2024/01/05 04:41:50;;;;;;;1.63;0.90;;;16.40;52.60;;;;;;6135609;23;20156;-83
2024/01/05 04:44:19;;;;;;;2.85;1.30;;;16.40;52.60;;;;;;6160569;23;20174;-83
2024/01/05 04:46:46;;;;;;;2.42;1.08;;;16.40;52.60;;;;;;6112815;23;20139;-83
2024/01/05 04:49:11;;;;;;;2.47;1.17;;;16.40;52.80;;;;;;6111845;23;20142;-83
2024/01/05 04:51:37;;;;;;;2.38;1.30;;;16.40;52.60;;;;;;6136202;23;20466;-83
2024/01/05 04:54:03;;;;;;;2.95;1.10;;;16.40;52.70;;;;;;6111473;23;20214;-84
2024/01/05 04:56:32;;;;;;;2.15;1.27;;;16.40;52.40;;;;;;6136853;23;20131;-83
2024/01/05 04:58:59;;;;;;;1.27;1.10;;;16.30;52.60;;;;;;6137285;23;20143;-83
2024/01/05 05:01:27;;;;;;;2.08;1.35;;;16.40;52.50;;;;;;6161480;23;20218;-83
2024/01/05 05:03:52;;;;;;;1.35;1.00;;;16.40;52.50;;;;;;6111858;23;20170;-84
2024/01/05 05:06:18;;;;;;;2.63;1.33;;;16.40;52.60;;;;;;6160731;23;20516;-83
2024/01/05 05:21:41;;;;;;;1.88;1.10;;;16.40;52.50;;;;;;6160809;23;20202;-83
2024/01/05 05:24:07;;;;;;;1.60;1.20;;;16.40;52.50;;;;;;6138754;23;20197;-83
2024/01/05 05:26:36;;;;;;;2.38;1.40;;;16.30;52.30;;;;;;6139416;23;20185;-84
2024/01/05 05:29:02;;;;;;;1.85;1.10;;;16.40;52.40;;;;;;6113722;23;20553;-83
2024/01/05 05:31:29;;;;;;;3.17;1.50;;;16.40;52.50;;;;;;6115209;23;20142;-84
2024/01/05 05:33:55;;;;;;;2.20;1.20;;;16.40;52.50;;;;;;6115036;23;20210;-83
2024/01/05 05:36:21;;;;;;;1.42;1.20;;;16.30;52.50;;;;;;6114134;23;20151;-84
2024/01/05 05:38:48;;;;;;;1.00;0.80;;;16.40;52.30;;;;;;6127054;23;20191;-84
2024/01/05 05:41:13;;;;;;;2.00;1.30;;;16.40;52.50;;;;;;6103003;23;20183;-84
2024/01/05 05:43:39;;;;;;;1.38;1.10;;;16.40;52.50;;;;;;6078564;23;20184;-84
2024/01/05 05:46:06;;;;;;;3.42;1.40;;;16.30;52.40;;;;;;6126156;23;20218;-83
2024/01/05 05:48:34;;;;;;;2.55;1.10;;;16.30;52.30;;;;;;6102044;23;20255;-83
2024/01/05 05:51:00;;;;;;;1.92;1.10;;;16.30;52.50;;;;;;6101914;23;20227;-83
2024/01/05 05:53:26;;;;;;;1.45;1.10;;;16.40;52.20;;;;;;6102411;23;20196;-83
2024/01/05 05:55:52;;;;;;;2.03;1.27;;;16.30;52.30;;;;;;6078569;23;20144;-83
2024/01/05 05:58:18;;;;;;;2.42;1.17;;;16.30;52.20;;;;;;6102764;23;20652;-83
2024/01/05 06:00:44;;;;;;;1.55;1.23;;;16.40;52.30;;;;;;6078382;23;20206;-83
2024/01/05 06:03:15;;;;;;;1.70;1.08;;;16.40;52.40;;;;;;6101629;23;20155;-83
2024/01/05 06:05:43;;;;;;;1.65;1.20;;;16.40;52.50;;;;;;6078229;23;20156;-84
2024/01/05 06:08:08;;;;;;;2.60;1.20;;;16.30;52.40;;;;;;6078651;23;20155;-83
2024/01/05 06:10:38;;;;;;;3.63;1.40;;;16.30;52.10;;;;;;6153377;23;20166;-84
2024/01/05 06:13:05;;;;;;;1.40;1.20;;;16.30;52.40;;;;;;6113108;23;20537;-84
2024/01/05 06:15:35;;;;;;;2.28;1.50;;;16.30;52.30;;;;;;6113791;23;20147;-83
2024/01/05 06:18:02;;;;;;;2.00;1.30;;;16.30;52.20;;;;;;6112268;23;20240;-83
2024/01/05 06:20:30;;;;;;;2.50;1.30;;;16.40;52.20;;;;;;6138984;23;20146;-83
2024/01/05 06:25:53;;;;;;;2.58;1.25;;;16.30;52.20;;;;;;6174828;22;20210;-85
2024/01/05 06:28:24;;;;;;;1.45;1.10;;;16.30;52.00;;;;;;6113255;23;20482;-84
2024/01/05 06:30:54;;;;;;;1.70;0.93;;;16.40;52.40;;;;;;6090076;23;20246;-83
2024/01/05 06:33:20;;;;;;;3.55;1.40;;;16.30;52.20;;;;;;6137746;23;20163;-83
2024/01/05 06:35:46;;;;;;;2.75;1.30;;;16.30;53.00;;;;;;6138081;23;20163;-83
2024/01/05 06:38:16;;;;;;;1.48;1.20;;;16.30;52.10;;;;;;6114232;23;20154;-83
2024/01/05 06:40:43;;;;;;;2.95;1.30;;;16.30;52.40;;;;;;6163646;23;20145;-83
2024/01/05 06:43:15;;;;;;;1.92;1.30;;;16.30;52.30;;;;;;6114192;23;20153;-84
2024/01/05 06:45:41;;;;;;;1.50;1.20;;;16.30;52.30;;;;;;6112260;23;20154;-84
2024/01/05 06:48:07;;;;;;;2.38;1.50;;;16.30;52.10;;;;;;6137547;23;20175;-84
2024/01/05 06:50:40;;;;;;;1.73;1.13;;;16.30;52.10;;;;;;6138381;23;20150;-83
2024/01/05 06:53:06;;;;;;;1.70;1.15;;;16.30;52.20;;;;;;6138492;23;20154;-83
2024/01/05 06:55:33;;;;;;;1.15;0.93;;;16.30;52.10;;;;;;6162635;23;20135;-84
2024/01/05 06:58:01;;;;;;;1.80;1.20;;;16.30;52.00;;;;;;6138905;23;20154;-83
2024/01/05 07:00:39;;;;;;;2.00;1.33;;;16.30;52.10;;;;;;6138723;23;20258;-83
2024/01/05 07:03:07;;;;;;;1.50;1.20;;;16.30;52.20;;;;;;6102581;23;20151;-84
2024/01/05 07:05:39;;;;;;;1.73;1.10;;;16.30;52.10;;;;;;6078437;23;20299;-83
2024/01/05 07:08:07;;;;;;;2.15;1.45;;;16.30;52.20;;;;;;6076887;23;20152;-83
2024/01/05 07:10:33;;;;;;;2.05;1.20;;;16.30;52.20;;;;;;6077278;23;20657;-83
2024/01/05 07:13:00;;;;;;;1.77;1.30;;;16.20;51.90;;;;;;6076740;23;20203;-83
2024/01/05 07:15:28;;;;;;;1.30;1.13;;;16.30;51.70;;;;;;6101080;23;20148;-82
2024/01/05 07:17:55;;;;;;;1.88;1.10;;;16.40;51.30;;;;;;6101693;23;20164;-83
2024/01/05 07:23:43;;;;;;;2.33;1.30;;;16.40;51.40;;;;;;6138826;23;20189;-82
2024/01/05 07:26:09;;;;;;;2.15;1.40;;;16.40;51.40;;;;;;6136370;23;20162;-84
2024/01/05 07:28:40;;;;;;;2.00;1.20;;;16.50;51.40;;;;;;6137197;23;20139;-83
2024/01/05 07:31:10;;;;;;;1.60;1.13;;;16.40;51.00;;;;;;6111797;23;20621;-84
2024/01/05 07:33:40;;;;;;;1.33;1.20;;;16.50;51.10;;;;;;6136097;23;20158;-83
2024/01/05 07:36:08;;;;;;;1.38;1.10;;;16.50;51.00;;;;;;6111314;23;20196;-82
2024/01/05 07:38:35;;;;;;;2.78;1.30;;;16.40;51.30;;;;;;6086951;23;20242;-82
2024/01/05 07:41:04;;;;;;;1.50;1.08;;;16.50;51.30;;;;;;6112028;23;20153;-82
2024/01/05 07:43:30;;;;;;;1.60;1.10;;;16.50;51.10;;;;;;6134851;23;20261;-82
2024/01/05 07:45:56;;;;;;;2.03;1.13;;;16.40;51.00;;;;;;6160076;23;20166;-83
2024/01/05 07:48:22;;;;;;;1.33;1.10;;;16.40;51.20;;;;;;6111258;23;20590;-83
2024/01/05 07:50:48;;;;;;;1.20;1.10;;;16.40;51.10;;;;;;6110461;23;20142;-83
2024/01/05 07:53:14;;;;;;;2.30;1.20;;;16.40;51.20;;;;;;6134924;23;20138;-83
2024/01/05 07:55:40;;;;;;;1.60;1.10;;;16.50;50.70;;;;;;6134685;23;20593;-83
2024/01/05 07:58:06;;;;;;;1.40;1.10;;;16.50;50.70;;;;;;6134118;23;20498;-82
2024/01/05 08:00:39;;;;;;;2.15;1.08;;;16.50;50.70;;;;;;6109977;23;20166;-82
2024/01/05 08:03:10;;;;;;;1.17;1.08;;;16.50;50.60;;;;;;6108336;23;20151;-82
2024/01/05 08:05:42;;;;;;;1.77;1.20;;;16.50;50.50;;;;;;6109160;23;20177;-83
2024/01/05 08:08:11;;;;;;;1.23;1.02;;;16.50;50.70;;;;;;6108516;23;20154;-82
2024/01/05 08:10:40;;;;;;;2.40;1.30;;;16.40;50.80;;;;;;6132602;23;20182;-82
2024/01/05 08:13:09;;;;;;;2.63;1.20;;;16.40;50.80;;;;;;6107728;23;20162;-83
2024/01/05 08:15:38;;;;;;;1.90;1.13;;;16.50;50.90;;;;;;6107702;23;20213;-83
2024/01/05 08:18:09;;;;;;;2.90;1.10;;;16.50;50.90;;;;;;6108159;23;20151;-82
2024/01/05 08:25:47;;;;;;;0.93;0.82;;;16.50;50.00;;;;;;6181295;23;20268;-82
2024/01/05 08:28:13;;;;;;;1.30;1.00;;;16.50;50.50;;;;;;6134673;23;20139;-82
2024/01/05 08:30:39;;;;;;;1.23;1.08;;;16.40;50.30;;;;;;6109880;23;20151;-82
2024/01/05 08:33:05;;;;;;;1.40;1.10;;;16.40;50.90;;;;;;6135104;23;20197;-82
2024/01/05 08:35:32;;;;;;;2.28;1.17;;;16.40;50.60;;;;;;6110514;23;20198;-82
2024/01/05 08:40:26;;;;;;;1.30;1.20;;;16.40;50.90;;;;;;6172805;23;20210;-82
2024/01/05 08:42:54;;;;;;;2.08;1.10;;;16.40;50.70;;;;;;6162548;23;20206;-82
2024/01/05 08:45:27;;;;;;;1.98;1.35;;;16.40;50.30;;;;;;6162339;23;20776;-82
2024/01/05 08:47:53;;;;;;;1.33;1.00;;;16.40;50.30;;;;;;6137461;23;20698;-81
2024/01/05 08:50:23;;;;;;;1.35;1.00;;;16.50;50.60;;;;;;6162550;23;20192;-82
2024/01/05 08:52:52;;;;;;;0.93;0.80;;;16.50;50.00;;;;;;6114049;23;20212;-82
2024/01/05 08:55:18;;;;;;;1.50;1.15;;;16.50;49.80;;;;;;6135646;23;20240;-83
2024/01/05 08:57:46;;;;;;;1.00;0.90;;;16.50;50.40;;;;;;6189384;23;20131;-82
2024/01/05 09:00:18;;;;;;;2.05;1.23;;;16.50;49.70;;;;;;6189994;23;20216;-82
2024/01/05 09:02:49;;;;;;;1.92;1.08;;;16.50;50.00;;;;;;6113427;23;20151;-82
2024/01/05 09:05:15;;;;;;;2.53;1.13;;;16.50;50.70;;;;;;6163079;23;20159;-83
2024/01/05 09:07:43;;;;;;;2.35;1.20;;;16.50;50.90;;;;;;6162427;23;20138;-83
2024/01/05 09:10:11;;;;;;;1.75;1.00;;;16.40;50.80;;;;;;6087691;23;20181;-82
2024/01/05 09:12:38;;;;;;;2.20;1.35;;;16.40;50.80;;;;;;6088597;23;20743;-83
2024/01/05 09:15:07;;;;;;;1.20;1.00;;;16.40;51.10;;;;;;6164460;23;20578;-83
2024/01/05 09:17:34;;;;;;;1.10;1.00;;;16.40;51.10;;;;;;6163958;23;20135;-84
2024/01/05 09:20:04;;;;;;;1.38;1.15;;;16.40;50.80;;;;;;6103807;23;20156;-85
2024/01/05 09:22:30;;;;;;;1.50;1.10;;;16.40;50.70;;;;;;6104003;23;20515;-82
2024/01/05 09:24:56;;;;;;;1.83;1.20;;;16.40;49.60;;;;;;6105213;23;20251;-83
2024/01/05 09:27:22;;;;;;;1.15;0.98;;;16.40;50.30;;;;;;6128099;23;20148;-82
2024/01/05 09:29:48;;;;;;;2.67;1.20;;;16.50;50.70;;;;;;6127052;23;20219;-82
2024/01/05 09:32:15;;;;;;;20.05;1.77;;;16.50;49.80;;;;;;6128220;23;20148;-82
2024/01/05 09:34:43;;;;;;;11.13;1.45;;;16.60;50.10;;;;;;6128190;23;20136;-83
2024/01/05 09:37:10;;;;;;;5.13;1.30;;;16.60;50.10;;;;;;6132906;23;20133;-83
2024/01/05 09:39:36;;;;;;;1.13;0.98;;;16.60;49.30;;;;;;6106486;23;20215;-83
2024/01/05 09:42:08;;;;;;;1.92;1.10;;;16.60;50.20;;;;;;6106228;23;20152;-82
2024/01/05 09:44:34;;;;;;;3.25;1.13;;;16.70;50.10;;;;;;6105251;23;20283;-83
2024/01/05 09:47:03;;;;;;;1.33;1.10;;;16.60;50.10;;;;;;6132675;23;20211;-81
2024/01/05 09:49:32;;;;;;;4.32;1.90;;;16.60;50.10;;;;;;6107130;23;20500;-83
2024/01/05 09:52:05;;;;;;;2.75;1.13;;;16.70;49.10;;;;;;6106882;23;20176;-84
2024/01/05 09:54:40;;;;;;;2.20;1.30;;;16.70;50.10;;;;;;6078541;23;20184;-83
2024/01/05 09:57:13;;;;;;;3.40;1.25;;;16.80;49.60;;;;;;6083585;23;20611;-83
2024/01/05 09:59:40;;;;;;;1.73;0.90;;;16.90;50.30;;;;;;6131559;23;20189;-83
2024/01/05 10:02:07;;;;;;;3.28;1.35;;;16.80;49.50;;;;;;6131916;23;20156;-82
2024/01/05 10:04:38;;;;;;;1.58;0.90;;;16.80;50.20;;;;;;6108995;23;20172;-83
2024/01/05 10:07:09;;;;;;;3.35;1.30;;;16.80;50.50;;;;;;6109614;23;20151;-82
2024/01/05 10:09:59;;;;;;;2.55;1.27;;;16.80;50.80;;;;;;6134080;23;20159;-85
2024/01/05 10:12:32;;;;;;;3.15;1.27;;;16.80;49.40;;;;;;6065273;23;20148;-85
2024/01/05 10:15:17;;;;;;;3.30;1.23;;;16.80;50.60;;;;;;6111466;23;20140;-79
2024/01/05 10:17:49;;;;;;;3.22;1.25;;;16.70;50.30;;;;;;6111536;23;20155;-84
2024/01/05 10:20:17;;;;;;;3.67;1.50;;;16.80;49.90;;;;;;6109609;23;20152;-82
2024/01/05 10:22:56;;;;;;;2.38;1.20;;;16.90;48.90;;;;;;6109522;23;20151;-82
2024/01/05 10:25:26;;;;;;;8.32;1.05;;;16.80;49.60;;;;;;6060862;23;20183;-82
2024/01/05 10:28:06;;;;;;;1.88;1.00;;;16.90;49.70;;;;;;6107395;23;20156;-82
2024/01/05 10:30:35;;;;;;;2.20;1.20;;;16.90;49.80;;;;;;6087206;23;20155;-83
2024/01/05 10:33:05;;;;;;;4.78;1.30;;;17.00;49.70;;;;;;6131713;23;20251;-82
2024/01/05 10:35:45;;;;;;;5.47;1.33;;;16.90;49.80;;;;;;6107367;23;20505;-83
2024/01/05 10:38:20;;;;;;;4.20;1.20;;;16.90;49.20;;;;;;6083796;23;20256;-82
2024/01/05 10:41:04;;;;;;;4.32;1.27;;;17.00;49.50;;;;;;6034523;23;20199;-83
2024/01/05 10:43:47;;;;;;;3.30;1.20;;;16.90;49.40;;;;;;6110879;23;20176;-81
2024/01/05 10:46:17;;;;;;;1.67;1.00;;;17.00;49.20;;;;;;6094354;23;20220;-82
2024/01/05 10:48:43;;;;;;;3.60;1.35;;;16.90;49.70;;;;;;6168378;23;20153;-83
2024/01/05 10:51:23;;;;;;;4.65;1.08;;;17.00;50.30;;;;;;6166116;23;20213;-83
2024/01/05 10:53:49;;;;;;;1.70;1.20;;;17.00;49.80;;;;;;6118505;23;20155;-81
2024/01/05 10:56:22;;;;;;;3.38;1.10;;;16.90;50.00;;;;;;6168683;23;20202;-80
2024/01/05 10:58:55;;;;;;;6.45;1.23;;;17.00;50.10;;;;;;6068794;23;20174;-82
2024/01/05 11:01:21;;;;;;;2.28;0.90;;;17.00;50.10;;;;;;6141044;23;20150;-82
2024/01/05 11:03:50;;;;;;;1.45;1.10;;;17.00;49.90;;;;;;6141677;23;20177;-82
2024/01/05 11:06:16;;;;;;;1.50;1.02;;;17.00;50.50;;;;;;6144090;23;20147;-82
2024/01/05 11:09:05;;;;;;;1.17;0.95;;;17.00;49.90;;;;;;6119236;23;20184;-81
2024/01/05 11:12:02;;;;;;;1.60;1.17;;;17.00;50.50;;;;;;6152100;23;20206;-82
2024/01/05 11:14:43;;;;;;;4.93;1.48;;;17.00;50.40;;;;;;6146312;23;20592;-82
2024/01/05 11:17:34;;;;;;;6.45;1.30;;;17.00;51.00;;;;;;6093103;23;20147;-82
2024/01/05 11:20:15;;;;;;;3.58;1.23;;;16.90;51.10;;;;;;6145686;23;20131;-81
2024/01/05 11:22:50;;;;;;;2.53;1.00;;;16.90;50.80;;;;;;6162939;23;20195;-80
2024/01/05 11:25:22;;;;;;;3.47;1.30;;;16.90;51.00;;;;;;6111222;23;20205;-84
2024/01/05 11:27:48;;;;;;;1.50;0.95;;;17.00;50.90;;;;;;6138418;23;20490;-82
2024/01/05 11:30:13;;;;;;;5.78;1.23;;;17.00;51.10;;;;;;6162469;23;20139;-81
2024/01/05 11:32:42;;;;;;;2.90;1.20;;;16.90;51.40;;;;;;6162949;23;20186;-82
2024/01/05 11:35:38;;;;;;;3.35;1.20;;;16.90;51.80;;;;;;6161916;23;20218;-83
2024/01/05 11:38:23;;;;;;;6.22;1.42;;;16.90;51.20;;;;;;6189772;23;20162;-82
2024/01/05 11:40:52;;;;;;;4.80;1.27;;;16.90;51.30;;;;;;6165665;23;20280;-82
2024/01/05 11:43:34;;;;;;;2.53;1.20;;;16.90;51.10;;;;;;6114474;23;20151;-82
2024/01/05 11:46:07;;;;;;;1.75;1.08;;;17.00;51.40;;;;;;6161946;23;20539;-85
2024/01/05 11:48:55;;;;;;;5.22;1.33;;;17.00;50.90;;;;;;6126494;23;20199;-84
2024/01/05 11:51:33;;;;;;;4.32;1.13;;;17.00;51.40;;;;;;6106158;23;20155;-85
2024/01/05 11:54:01;;;;;;;2.80;1.20;;;17.00;51.40;;;;;;6106155;23;20155;-85
2024/01/05 11:56:27;;;;;;;3.28;1.25;;;17.00;51.30;;;;;;6106338;23;20302;-84
2024/01/05 11:59:19;;;;;;;2.58;1.27;;;17.00;51.80;;;;;;6105106;23;20140;-84
2024/01/05 12:01:51;;;;;;;3.85;1.30;;;17.00;51.40;;;;;;6046130;23;20621;-85
2024/01/05 12:04:20;;;;;;;2.97;1.13;;;17.00;50.80;;;;;;6020906;23;20211;-81
2024/01/05 12:06:58;;;;;;;2.03;1.00;;;17.00;51.20;;;;;;5980817;23;20604;-84
2024/01/05 12:09:31;;;;;;;2.92;1.15;;;17.00;51.40;;;;;;6007302;23;20176;-84
2024/01/05 12:12:48;;;;;;;4.55;1.40;;;17.00;51.20;;;;;;6031494;23;20164;-85
2024/01/05 12:15:15;;;;;;;1.00;0.90;;;17.00;51.40;;;;;;5943780;24;20185;-85
2024/01/05 12:17:45;;;;;;;3.15;1.15;;;16.90;51.90;;;;;;5919150;24;20179;-85
2024/01/05 12:20:25;;;;;;;2.08;1.10;;;16.90;51.90;;;;;;5893491;24;20704;-84
2024/01/05 12:23:08;;;;;;;;;;;;;;;;;;;;;
2024/01/05 12:25:41;;;;;;;3.45;1.10;;;16.90;51.60;;;;;;5918072;24;20166;-84
2024/01/05 12:28:07;;;;;;;3.75;1.10;;;17.00;51.80;;;;;;5972745;24;20163;-84
2024/01/05 12:30:51;;;;;;;2.55;1.10;;;16.90;51.10;;;;;;5971588;24;20164;-83
2024/01/05 12:33:18;;;;;;;1.27;1.00;;;17.00;51.40;;;;;;5980042;23;20207;-84
2024/01/05 12:35:48;;;;;;;1.80;1.20;;;16.90;51.60;;;;;;6001511;23;20166;-83
2024/01/05 12:38:31;;;;;;;2.67;1.00;;;17.00;50.90;;;;;;6000670;23;20162;-84
2024/01/05 13:45:21;;;;;;;9.05;1.85;;;17.00;51.60;;;;;;6173680;23;20259;-82
2024/01/05 13:47:48;;;;;;;3.20;1.45;;;17.00;51.90;;;;;;6096151;23;20161;-81
2024/01/05 13:50:16;;;;;;;6.88;1.20;;;17.00;51.40;;;;;;6122077;23;20159;-82
2024/01/05 13:52:46;;;;;;;4.13;1.25;;;17.10;51.90;;;;;;6094761;23;20163;-80
2024/01/05 13:55:12;;;;;;;8.27;1.70;;;17.10;50.50;;;;;;6092288;23;20179;-82
2024/01/05 13:57:42;;;;;;;6.53;1.40;;;17.10;51.50;;;;;;6090193;23;20151;-82
2024/01/05 14:00:11;;;;;;;8.75;1.58;;;17.00;51.60;;;;;;6091735;23;20166;-81
2024/01/05 14:02:42;;;;;;;11.75;1.80;;;17.00;51.30;;;;;;6083907;23;20185;-81
2024/01/05 14:05:10;;;;;;;8.48;1.60;;;17.10;51.70;;;;;;6058602;23;20184;-82
2024/01/05 14:07:36;;;;;;;6.00;1.27;;;17.00;51.40;;;;;;6038829;23;20164;-82
2024/01/05 14:10:09;;;;;;;5.43;1.35;;;17.00;51.80;;;;;;6039850;23;20171;-83
2024/01/05 14:12:34;;;;;;;11.00;1.60;;;17.00;51.40;;;;;;6030734;23;20178;-83
2024/01/05 14:15:02;;;;;;;2.22;1.10;;;17.10;50.30;;;;;;6051022;23;20162;-82
2024/01/05 14:17:30;;;;;;;1.70;1.00;;;17.10;49.50;;;;;;6028680;23;20169;-81
2024/01/05 14:19:56;;;;;;;5.90;1.10;;;17.10;50.40;;;;;;6030999;23;20180;-82
2024/01/05 14:22:25;;;;;;;5.47;1.17;;;17.10;50.40;;;;;;6031420;23;20158;-83
2024/01/05 14:24:55;;;;;;;6.32;1.35;;;17.10;51.20;;;;;;6028719;23;20286;-82
2024/01/05 14:27:25;;;;;;;7.18;1.20;;;17.10;51.50;;;;;;6047012;23;20149;-83
2024/01/05 14:29:54;;;;;;;4.60;1.30;;;17.10;51.20;;;;;;6035912;23;20164;-82
2024/01/05 14:39:56;;;;;;;6.80;1.40;;;17.10;50.90;;;;;;6196388;23;20182;-81
2024/01/05 14:42:25;;;;;;;12.65;1.67;;;17.10;50.40;;;;;;6147399;23;20150;-82
2024/01/05 14:44:52;;;;;;;9.65;1.45;;;17.10;50.10;;;;;;6195889;23;20167;-81
2024/01/05 14:47:24;;;;;;;12.05;1.92;;;17.10;50.90;;;;;;6149642;23;20147;-82
2024/01/05 14:49:55;;;;;;;15.75;2.13;;;17.10;50.00;;;;;;6120931;23;20150;-82
2024/01/05 14:52:22;;;;;;;14.25;1.50;;;17.10;50.80;;;;;;6192495;23;20150;-83
2024/01/05 14:54:47;;;;;;;7.38;1.63;;;17.20;50.50;;;;;;6080330;23;20161;-82
2024/01/05 14:57:14;;;;;;;10.68;2.10;;;17.20;50.30;;;;;;6103943;23;20168;-83
2024/01/05 14:59:44;;;;;;;10.50;1.67;;;17.20;50.80;;;;;;6045070;23;20245;-81
2024/01/05 15:02:10;;;;;;;13.18;1.73;;;17.10;52.00;;;;;;5950909;23;20161;-82
2024/01/05 15:04:36;;;;;;;14.23;1.70;;;17.10;51.30;;;;;;6023287;23;20182;-83
2024/01/05 15:07:07;;;;;;;11.68;1.73;;;17.10;51.00;;;;;;5999945;23;20130;-83
2024/01/05 15:09:36;;;;;;;17.02;1.80;;;17.10;51.50;;;;;;6000137;23;20158;-83
2024/01/05 15:12:05;;;;;;;20.75;2.00;;;17.10;52.00;;;;;;5972672;23;20209;-83